sensor_id;sensor_type;location;lat;lon;timestamp;pressure;altitude;pressure_sealevel;temperature;humidity
65897;BME280;52677;50.898;10.854;2023-07-31T00:01:14;98210.38;;;16.30;97.55
65897;BME280;52677;50.898;10.854;2023-07-31T00:03:14;98204.44;;;16.28;98.26
65897;BME280;52677;50.898;10.854;2023-07-31T00:05:15;98206.94;;;16.22;98.52
65897;BME280;52677;50.898;10.854;2023-07-31T00:07:15;98219.97;;;16.29;98.29
65897;BME280;52677;50.898;10.854;2023-07-31T00:09:16;98214.91;;;16.24;99.25
65897;BME280;52677;50.898;10.854;2023-07-31T00:11:16;98210.13;;;16.21;100.00
65897;BME280;52677;50.898;10.854;2023-07-31T00:13:16;98219.31;;;16.21;100.00
65897;BME280;52677;50.898;10.854;2023-07-31T00:15:17;98219.44;;;16.14;100.00
65897;BME280;52677;50.898;10.854;2023-07-31T00:17:17;98217.09;;;16.09;100.00
65897;BME280;52677;50.898;10.854;2023-07-31T00:19:18;98197.66;;;16.02;100.00
65897;BME280;52677;50.898;10.854;2023-07-31T00:21:18;98206.94;;;15.95;100.00
65897;BME280;52677;50.898;10.854;2023-07-31T00:23:19;98207.34;;;15.94;100.00
65897;BME280;52677;50.898;10.854;2023-07-31T00:25:19;98199.88;;;15.87;100.00
65897;BME280;52677;50.898;10.854;2023-07-31T00:27:19;98190.03;;;15.79;100.00
65897;BME280;52677;50.898;10.854;2023-07-31T00:29:20;98188.50;;;15.75;100.00
65897;BME280;52677;50.898;10.854;2023-07-31T00:31:20;98182.19;;;15.70;100.00
65897;BME280;52677;50.898;10.854;2023-07-31T00:33:20;98186.19;;;15.69;100.00
65897;BME280;52677;50.898;10.854;2023-07-31T00:35:21;98175.53;;;15.61;100.00
65897;BME280;52677;50.898;10.854;2023-07-31T00:37:21;98187.47;;;15.61;100.00
65897;BME280;52677;50.898;10.854;2023-07-31T00:39:21;98188.31;;;15.55;100.00
65897;BME280;52677;50.898;10.854;2023-07-31T00:41:22;98185.19;;;15.53;100.00
65897;BME280;52677;50.898;10.854;2023-07-31T00:43:22;98176.53;;;15.43;100.00
65897;BME280;52677;50.898;10.854;2023-07-31T00:45:23;98184.44;;;15.49;100.00
65897;BME280;52677;50.898;10.854;2023-07-31T00:47:24;98185.19;;;15.53;100.00
65897;BME280;52677;50.898;10.854;2023-07-31T00:49:24;98170.91;;;15.47;100.00
65897;BME280;52677;50.898;10.854;2023-07-31T00:51:25;98172.19;;;15.39;100.00
65897;BME280;52677;50.898;10.854;2023-07-31T00:53:25;98175.81;;;15.36;100.00
65897;BME280;52677;50.898;10.854;2023-07-31T00:55:26;98171.09;;;15.33;100.00
65897;BME280;52677;50.898;10.854;2023-07-31T00:57:26;98173.47;;;15.34;100.00
65897;BME280;52677;50.898;10.854;2023-07-31T00:59:26;98174.16;;;15.42;100.00
65897;BME280;52677;50.898;10.854;2023-07-31T01:01:27;98174.97;;;15.42;100.00
65897;BME280;52677;50.898;10.854;2023-07-31T01:03:28;98166.63;;;15.39;100.00
65897;BME280;52677;50.898;10.854;2023-07-31T01:05:39;98156.41;;;15.29;100.00
65897;BME280;52677;50.898;10.854;2023-07-31T01:07:52;98155.97;;;15.30;100.00
65897;BME280;52677;50.898;10.854;2023-07-31T01:10:05;98148.88;;;15.26;100.00
65897;BME280;52677;50.898;10.854;2023-07-31T01:12:09;98158.47;;;15.25;100.00
65897;BME280;52677;50.898;10.854;2023-07-31T01:14:12;98160.06;;;15.22;100.00
65897;BME280;52677;50.898;10.854;2023-07-31T01:16:12;98159.28;;;15.22;100.00
65897;BME280;52677;50.898;10.854;2023-07-31T01:18:12;98145.34;;;15.22;100.00
65897;BME280;52677;50.898;10.854;2023-07-31T01:20:23;98140.63;;;15.18;100.00
65897;BME280;52677;50.898;10.854;2023-07-31T01:27:15;98129.72;;;15.31;100.00
65897;BME280;52677;50.898;10.854;2023-07-31T01:31:26;98128.09;;;15.34;100.00
65897;BME280;52677;50.898;10.854;2023-07-31T01:33:29;98120.94;;;15.33;100.00
65897;BME280;52677;50.898;10.854;2023-07-31T01:35:30;98108.22;;;15.28;100.00
65897;BME280;52677;50.898;10.854;2023-07-31T01:37:30;98126.59;;;15.26;100.00
65897;BME280;52677;50.898;10.854;2023-07-31T01:39:30;98131.00;;;15.23;100.00
65897;BME280;52677;50.898;10.854;2023-07-31T01:41:31;98121.53;;;15.17;100.00
65897;BME280;52677;50.898;10.854;2023-07-31T01:43:31;98123.09;;;15.18;100.00
65897;BME280;52677;50.898;10.854;2023-07-31T01:45:31;98113.97;;;15.17;100.00
65897;BME280;52677;50.898;10.854;2023-07-31T01:47:32;98112.31;;;15.20;100.00
65897;BME280;52677;50.898;10.854;2023-07-31T01:49:32;98110.31;;;15.21;100.00
65897;BME280;52677;50.898;10.854;2023-07-31T01:51:32;98117.09;;;15.20;100.00
65897;BME280;52677;50.898;10.854;2023-07-31T01:53:35;98105.03;;;15.30;100.00
65897;BME280;52677;50.898;10.854;2023-07-31T01:55:36;98104.25;;;15.29;100.00
65897;BME280;52677;50.898;10.854;2023-07-31T01:57:37;98106.50;;;15.38;100.00
65897;BME280;52677;50.898;10.854;2023-07-31T01:59:37;98105.09;;;15.26;100.00
65897;BME280;52677;50.898;10.854;2023-07-31T02:01:38;98109.09;;;15.25;100.00
65897;BME280;52677;50.898;10.854;2023-07-31T02:03:38;98095.56;;;15.24;100.00
65897;BME280;52677;50.898;10.854;2023-07-31T02:05:45;98107.22;;;15.15;100.00
65897;BME280;52677;50.898;10.854;2023-07-31T02:07:45;98093.75;;;15.10;100.00
65897;BME280;52677;50.898;10.854;2023-07-31T02:09:46;98102.97;;;15.03;100.00
65897;BME280;52677;50.898;10.854;2023-07-31T02:11:48;98098.25;;;15.00;100.00
65897;BME280;52677;50.898;10.854;2023-07-31T02:13:48;98104.56;;;15.04;100.00
65897;BME280;52677;50.898;10.854;2023-07-31T02:15:48;98093.84;;;15.03;100.00
65897;BME280;52677;50.898;10.854;2023-07-31T02:17:48;98090.59;;;15.08;100.00
65897;BME280;52677;50.898;10.854;2023-07-31T02:19:49;98098.28;;;14.97;100.00
65897;BME280;52677;50.898;10.854;2023-07-31T02:21:49;98089.53;;;14.98;100.00
65897;BME280;52677;50.898;10.854;2023-07-31T02:23:49;98080.03;;;14.92;100.00
65897;BME280;52677;50.898;10.854;2023-07-31T02:25:50;98095.63;;;14.86;100.00
65897;BME280;52677;50.898;10.854;2023-07-31T02:27:50;98088.97;;;14.76;100.00
65897;BME280;52677;50.898;10.854;2023-07-31T02:29:50;98092.59;;;14.73;100.00
65897;BME280;52677;50.898;10.854;2023-07-31T02:31:50;98087.03;;;14.73;100.00
65897;BME280;52677;50.898;10.854;2023-07-31T02:33:51;98093.28;;;14.81;100.00
65897;BME280;52677;50.898;10.854;2023-07-31T02:35:51;98084.56;;;14.79;100.00
65897;BME280;52677;50.898;10.854;2023-07-31T02:37:51;98085.41;;;14.76;100.00
65897;BME280;52677;50.898;10.854;2023-07-31T02:39:52;98089.81;;;14.73;100.00
65897;BME280;52677;50.898;10.854;2023-07-31T02:41:52;98085.84;;;14.71;100.00
65897;BME280;52677;50.898;10.854;2023-07-31T02:43:52;98077.88;;;14.73;100.00
65897;BME280;52677;50.898;10.854;2023-07-31T02:45:53;98071.16;;;14.70;100.00
65897;BME280;52677;50.898;10.854;2023-07-31T02:47:53;98080.22;;;14.78;100.00
65897;BME280;52677;50.898;10.854;2023-07-31T02:49:53;98089.78;;;14.77;100.00
65897;BME280;52677;50.898;10.854;2023-07-31T02:51:54;98084.63;;;14.75;100.00
65897;BME280;52677;50.898;10.854;2023-07-31T02:53:54;98085.44;;;14.72;100.00
65897;BME280;52677;50.898;10.854;2023-07-31T02:55:54;98088.56;;;14.78;100.00
65897;BME280;52677;50.898;10.854;2023-07-31T02:57:54;98075.06;;;14.76;100.00
65897;BME280;52677;50.898;10.854;2023-07-31T02:59:55;98090.19;;;14.75;100.00
65897;BME280;52677;50.898;10.854;2023-07-31T03:01:55;98081.47;;;14.73;100.00
65897;BME280;52677;50.898;10.854;2023-07-31T03:03:56;98090.97;;;14.76;100.00
65897;BME280;52677;50.898;10.854;2023-07-31T03:05:56;98091.41;;;14.74;100.00
65897;BME280;52677;50.898;10.854;2023-07-31T03:07:56;98092.59;;;14.73;100.00
65897;BME280;52677;50.898;10.854;2023-07-31T03:09:56;98073.56;;;14.68;100.00
65897;BME280;52677;50.898;10.854;2023-07-31T03:11:57;98080.72;;;14.69;100.00
65897;BME280;52677;50.898;10.854;2023-07-31T03:13:57;98081.97;;;14.65;100.00
65897;BME280;52677;50.898;10.854;2023-07-31T03:15:57;98078.41;;;14.60;100.00
65897;BME280;52677;50.898;10.854;2023-07-31T03:17:58;98079.88;;;14.72;100.00
65897;BME280;52677;50.898;10.854;2023-07-31T03:19:58;98081.06;;;14.75;100.00
65897;BME280;52677;50.898;10.854;2023-07-31T03:21:59;98071.06;;;14.77;100.00
65897;BME280;52677;50.898;10.854;2023-07-31T03:23:59;98069.44;;;14.80;100.00
65897;BME280;52677;50.898;10.854;2023-07-31T03:26:02;98071.34;;;14.86;100.00
65897;BME280;52677;50.898;10.854;2023-07-31T03:28:05;98081.28;;;14.87;100.00
65897;BME280;52677;50.898;10.854;2023-07-31T03:30:06;98072.13;;;14.87;100.00
65897;BME280;52677;50.898;10.854;2023-07-31T03:32:07;98074.91;;;14.91;100.00
65897;BME280;52677;50.898;10.854;2023-07-31T03:34:07;98057.00;;;14.88;100.00
65897;BME280;52677;50.898;10.854;2023-07-31T03:36:07;98068.22;;;14.81;100.00
65897;BME280;52677;50.898;10.854;2023-07-31T03:38:08;98066.63;;;14.83;100.00
65897;BME280;52677;50.898;10.854;2023-07-31T03:40:09;98068.19;;;14.84;100.00
65897;BME280;52677;50.898;10.854;2023-07-31T03:42:09;98065.06;;;14.82;100.00
65897;BME280;52677;50.898;10.854;2023-07-31T03:44:09;98071.81;;;14.81;100.00
65897;BME280;52677;50.898;10.854;2023-07-31T03:46:10;98066.66;;;14.80;100.00
65897;BME280;52677;50.898;10.854;2023-07-31T03:48:11;98064.25;;;14.82;100.00
65897;BME280;52677;50.898;10.854;2023-07-31T03:50:11;98059.09;;;14.80;100.00
65897;BME280;52677;50.898;10.854;2023-07-31T03:52:11;98064.28;;;14.78;100.00
65897;BME280;52677;50.898;10.854;2023-07-31T03:54:12;98063.16;;;14.72;100.00
65897;BME280;52677;50.898;10.854;2023-07-31T03:56:13;98051.66;;;14.70;100.00
65897;BME280;52677;50.898;10.854;2023-07-31T03:58:13;98050.44;;;14.71;100.00
65897;BME280;52677;50.898;10.854;2023-07-31T04:00:14;98052.81;;;14.73;100.00
65897;BME280;52677;50.898;10.854;2023-07-31T04:02:14;98047.34;;;14.66;100.00
65897;BME280;52677;50.898;10.854;2023-07-31T04:04:14;98054.50;;;14.67;100.00
65897;BME280;52677;50.898;10.854;2023-07-31T04:06:15;98053.31;;;14.64;100.00
65897;BME280;52677;50.898;10.854;2023-07-31T04:08:18;98055.22;;;14.71;100.00
65897;BME280;52677;50.898;10.854;2023-07-31T04:10:18;98050.44;;;14.71;100.00
65897;BME280;52677;50.898;10.854;2023-07-31T04:12:18;98046.88;;;14.71;100.00
65897;BME280;52677;50.898;10.854;2023-07-31T04:14:19;98042.44;;;14.77;100.00
65897;BME280;52677;50.898;10.854;2023-07-31T04:16:19;98048.72;;;14.81;100.00
65897;BME280;52677;50.898;10.854;2023-07-31T04:18:19;98036.44;;;14.78;100.00
65897;BME280;52677;50.898;10.854;2023-07-31T04:20:20;98046.72;;;14.85;100.00
65897;BME280;52677;50.898;10.854;2023-07-31T04:22:20;98039.94;;;14.86;100.00
65897;BME280;52677;50.898;10.854;2023-07-31T04:24:20;98049.78;;;14.94;100.00
65897;BME280;52677;50.898;10.854;2023-07-31T04:26:24;98041.06;;;14.92;100.00
65897;BME280;52677;50.898;10.854;2023-07-31T04:28:24;98044.63;;;14.93;100.00
65897;BME280;52677;50.898;10.854;2023-07-31T04:30:26;98043.78;;;14.96;100.00
65897;BME280;52677;50.898;10.854;2023-07-31T04:32:26;98049.69;;;15.01;100.00
65897;BME280;52677;50.898;10.854;2023-07-31T04:34:27;98048.91;;;15.01;100.00
65897;BME280;52677;50.898;10.854;2023-07-31T04:36:27;98040.97;;;14.99;100.00
65897;BME280;52677;50.898;10.854;2023-07-31T04:38:27;98046.84;;;15.05;100.00
65897;BME280;52677;50.898;10.854;2023-07-31T04:40:28;98044.84;;;15.05;100.00
65897;BME280;52677;50.898;10.854;2023-07-31T04:42:28;98052.03;;;15.06;100.00
65897;BME280;52677;50.898;10.854;2023-07-31T04:44:28;98052.03;;;15.06;100.00
65897;BME280;52677;50.898;10.854;2023-07-31T04:46:29;98049.22;;;15.06;100.00
65897;BME280;52677;50.898;10.854;2023-07-31T04:48:29;98048.41;;;15.06;100.00
65897;BME280;52677;50.898;10.854;2023-07-31T04:50:30;98044.38;;;15.10;100.00
65897;BME280;52677;50.898;10.854;2023-07-31T04:52:30;98047.59;;;15.09;100.00
65897;BME280;52677;50.898;10.854;2023-07-31T04:54:30;98044.84;;;15.05;100.00
65897;BME280;52677;50.898;10.854;2023-07-31T04:56:31;98050.72;;;15.14;100.00
65897;BME280;52677;50.898;10.854;2023-07-31T04:58:31;98047.50;;;15.16;100.00
65897;BME280;52677;50.898;10.854;2023-07-31T05:00:31;98047.88;;;15.18;100.00
65897;BME280;52677;50.898;10.854;2023-07-31T05:02:32;98043.03;;;15.22;100.00
65897;BME280;52677;50.898;10.854;2023-07-31T05:04:32;98043.84;;;15.23;100.00
65897;BME280;52677;50.898;10.854;2023-07-31T05:06:32;98054.91;;;15.26;100.00
65897;BME280;52677;50.898;10.854;2023-07-31T05:08:33;98047.34;;;15.27;100.00
65897;BME280;52677;50.898;10.854;2023-07-31T05:10:33;98046.88;;;15.32;100.00
65897;BME280;52677;50.898;10.854;2023-07-31T05:12:34;98044.38;;;15.41;100.00
65897;BME280;52677;50.898;10.854;2023-07-31T05:14:34;98032.03;;;15.38;100.00
65897;BME280;52677;50.898;10.854;2023-07-31T05:16:34;98043.94;;;15.42;100.00
65897;BME280;52677;50.898;10.854;2023-07-31T05:18:35;98042.38;;;15.41;100.00
65897;BME280;52677;50.898;10.854;2023-07-31T05:20:35;98056.22;;;15.45;100.00
65897;BME280;52677;50.898;10.854;2023-07-31T05:22:35;98047.06;;;15.48;100.00
65897;BME280;52677;50.898;10.854;2023-07-31T05:24:35;98059.78;;;15.49;100.00
65897;BME280;52677;50.898;10.854;2023-07-31T05:26:36;98048.19;;;15.51;100.00
65897;BME280;52677;50.898;10.854;2023-07-31T05:28:37;98058.56;;;15.50;100.00
65897;BME280;52677;50.898;10.854;2023-07-31T05:30:38;98059.78;;;15.49;100.00
65897;BME280;52677;50.898;10.854;2023-07-31T05:32:38;98068.13;;;15.49;100.00
65897;BME280;52677;50.898;10.854;2023-07-31T05:34:38;98069.28;;;15.52;100.00
65897;BME280;52677;50.898;10.854;2023-07-31T05:36:39;98067.28;;;15.52;100.00
65897;BME280;52677;50.898;10.854;2023-07-31T05:38:39;98066.81;;;15.57;100.00
65897;BME280;52677;50.898;10.854;2023-07-31T05:40:39;98073.91;;;15.65;100.00
65897;BME280;52677;50.898;10.854;2023-07-31T05:42:40;98065.09;;;15.67;100.00
65897;BME280;52677;50.898;10.854;2023-07-31T05:44:40;98059.53;;;15.67;100.00
65897;BME280;52677;50.898;10.854;2023-07-31T05:46:40;98059.88;;;15.69;100.00
65897;BME280;52677;50.898;10.854;2023-07-31T05:48:41;98069.47;;;15.68;100.00
65897;BME280;52677;50.898;10.854;2023-07-31T05:50:43;98068.63;;;15.71;100.00
65897;BME280;52677;50.898;10.854;2023-07-31T05:52:43;98061.81;;;15.72;100.00
65897;BME280;52677;50.898;10.854;2023-07-31T05:54:44;98065.81;;;15.71;100.00
65897;BME280;52677;50.898;10.854;2023-07-31T05:56:46;98065.44;;;15.72;100.00
65897;BME280;52677;50.898;10.854;2023-07-31T05:58:46;98059.31;;;15.81;100.00
65897;BME280;52677;50.898;10.854;2023-07-31T06:00:47;98061.34;;;15.77;100.00
65897;BME280;52677;50.898;10.854;2023-07-31T06:02:47;98056.13;;;15.79;100.00
65897;BME280;52677;50.898;10.854;2023-07-31T06:04:48;98067.69;;;15.81;100.00
65897;BME280;52677;50.898;10.854;2023-07-31T06:06:48;98067.25;;;15.83;100.00
65897;BME280;52677;50.898;10.854;2023-07-31T06:08:49;98063.59;;;15.86;100.00
65897;BME280;52677;50.898;10.854;2023-07-31T06:10:50;98065.13;;;15.90;100.00
65897;BME280;52677;50.898;10.854;2023-07-31T06:12:50;98071.88;;;15.93;100.00
65897;BME280;52677;50.898;10.854;2023-07-31T06:14:50;98070.66;;;15.94;100.00
65897;BME280;52677;50.898;10.854;2023-07-31T06:16:51;98057.47;;;15.94;100.00
65897;BME280;52677;50.898;10.854;2023-07-31T06:18:51;98050.75;;;15.92;100.00
65897;BME280;52677;50.898;10.854;2023-07-31T06:20:51;98048.41;;;15.90;100.00
65897;BME280;52677;50.898;10.854;2023-07-31T06:22:53;98054.41;;;15.89;100.00
65897;BME280;52677;50.898;10.854;2023-07-31T06:24:53;98049.22;;;15.87;100.00
65897;BME280;52677;50.898;10.854;2023-07-31T06:26:54;98045.09;;;15.95;100.00
65897;BME280;52677;50.898;10.854;2023-07-31T06:28:54;98050.66;;;15.99;100.00
65897;BME280;52677;50.898;10.854;2023-07-31T06:30:55;98047.06;;;15.98;100.00
65897;BME280;52677;50.898;10.854;2023-07-31T06:32:55;98057.81;;;16.00;100.00
65897;BME280;52677;50.898;10.854;2023-07-31T06:34:55;98057.38;;;16.01;100.00
65897;BME280;52677;50.898;10.854;2023-07-31T06:36:56;98054.22;;;15.99;100.00
65897;BME280;52677;50.898;10.854;2023-07-31T06:38:56;98042.72;;;15.97;100.00
65897;BME280;52677;50.898;10.854;2023-07-31T06:40:57;98040.69;;;15.98;100.00
65897;BME280;52677;50.898;10.854;2023-07-31T06:42:57;98037.47;;;15.99;100.00
65897;BME280;52677;50.898;10.854;2023-07-31T06:44:58;98043.50;;;15.98;100.00
65897;BME280;52677;50.898;10.854;2023-07-31T06:46:58;98043.41;;;16.01;100.00
65897;BME280;52677;50.898;10.854;2023-07-31T06:48:58;98041.84;;;16.00;100.00
65897;BME280;52677;50.898;10.854;2023-07-31T06:50:59;98043.06;;;15.99;100.00
65897;BME280;52677;50.898;10.854;2023-07-31T06:52:59;98040.19;;;16.03;100.00
65897;BME280;52677;50.898;10.854;2023-07-31T06:55:01;98043.31;;;16.09;100.00
65897;BME280;52677;50.898;10.854;2023-07-31T06:57:02;98040.44;;;16.12;100.00
65897;BME280;52677;50.898;10.854;2023-07-31T06:59:03;98040.25;;;16.23;100.00
65897;BME280;52677;50.898;10.854;2023-07-31T07:01:04;98039.47;;;16.22;100.00
65897;BME280;52677;50.898;10.854;2023-07-31T07:03:04;98024.75;;;16.22;100.00
65897;BME280;52677;50.898;10.854;2023-07-31T07:05:04;98035.47;;;16.23;100.00
65897;BME280;52677;50.898;10.854;2023-07-31T07:07:05;98034.59;;;16.26;100.00
65897;BME280;52677;50.898;10.854;2023-07-31T07:09:05;98032.56;;;16.31;100.00
65897;BME280;52677;50.898;10.854;2023-07-31T07:11:06;98036.91;;;16.32;100.00
65897;BME280;52677;50.898;10.854;2023-07-31T07:13:06;98034.13;;;16.32;100.00
65897;BME280;52677;50.898;10.854;2023-07-31T07:15:08;98038.50;;;16.33;100.00
65897;BME280;52677;50.898;10.854;2023-07-31T07:17:08;98027.75;;;16.31;100.00
65897;BME280;52677;50.898;10.854;2023-07-31T07:19:09;98033.25;;;16.35;100.00
65897;BME280;52677;50.898;10.854;2023-07-31T07:21:09;98034.78;;;16.39;100.00
65897;BME280;52677;50.898;10.854;2023-07-31T07:23:09;98043.44;;;16.45;100.00
65897;BME280;52677;50.898;10.854;2023-07-31T07:25:10;98028.97;;;16.50;100.00
65897;BME280;52677;50.898;10.854;2023-07-31T07:27:10;98036.06;;;16.54;100.00
65897;BME280;52677;50.898;10.854;2023-07-31T07:29:11;98027.28;;;16.56;100.00
65897;BME280;52677;50.898;10.854;2023-07-31T07:31:11;98027.94;;;16.64;100.00
65897;BME280;52677;50.898;10.854;2023-07-31T07:33:11;98025.84;;;16.68;100.00
65897;BME280;52677;50.898;10.854;2023-07-31T07:35:12;98034.47;;;16.77;100.00
65897;BME280;52677;50.898;10.854;2023-07-31T07:37:13;98033.53;;;16.83;100.00
65897;BME280;52677;50.898;10.854;2023-07-31T07:39:13;98029.81;;;16.90;100.00
65897;BME280;52677;50.898;10.854;2023-07-31T07:41:13;98024.06;;;16.97;100.00
65897;BME280;52677;50.898;10.854;2023-07-31T07:43:14;98031.50;;;17.04;100.00
65897;BME280;52677;50.898;10.854;2023-07-31T07:45:14;98028.97;;;17.09;100.00
65897;BME280;52677;50.898;10.854;2023-07-31T07:47:14;98031.34;;;17.11;100.00
65897;BME280;52677;50.898;10.854;2023-07-31T07:49:15;98028.84;;;17.17;100.00
65897;BME280;52677;50.898;10.854;2023-07-31T07:51:15;98022.81;;;17.18;100.00
65897;BME280;52677;50.898;10.854;2023-07-31T07:53:15;98025.78;;;17.27;100.00
65897;BME280;52677;50.898;10.854;2023-07-31T07:55:16;98026.94;;;17.30;100.00
65897;BME280;52677;50.898;10.854;2023-07-31T07:57:16;98018.75;;;17.39;100.00
65897;BME280;52677;50.898;10.854;2023-07-31T07:59:16;98022.97;;;17.47;100.00
65897;BME280;52677;50.898;10.854;2023-07-31T08:01:17;98027.56;;;17.54;100.00
65897;BME280;52677;50.898;10.854;2023-07-31T08:03:17;98031.53;;;17.56;100.00
65897;BME280;52677;50.898;10.854;2023-07-31T08:05:18;98021.19;;;17.53;100.00
65897;BME280;52677;50.898;10.854;2023-07-31T08:07:18;98038.25;;;17.59;100.00
65897;BME280;52677;50.898;10.854;2023-07-31T08:09:18;98041.84;;;17.59;100.00
65897;BME280;52677;50.898;10.854;2023-07-31T08:11:18;98042.19;;;17.61;100.00
65897;BME280;52677;50.898;10.854;2023-07-31T08:13:19;98031.78;;;17.62;100.00
65897;BME280;52677;50.898;10.854;2023-07-31T08:15:19;98043.94;;;17.55;100.00
65897;BME280;52677;50.898;10.854;2023-07-31T08:17:19;98044.28;;;17.57;100.00
65897;BME280;52677;50.898;10.854;2023-07-31T08:19:20;98033.59;;;17.52;100.00
65897;BME280;52677;50.898;10.854;2023-07-31T08:21:21;98041.75;;;17.47;100.00
65897;BME280;52677;50.898;10.854;2023-07-31T08:23:22;98037.72;;;17.48;100.00
65897;BME280;52677;50.898;10.854;2023-07-31T08:25:22;98034.50;;;17.49;100.00
65897;BME280;52677;50.898;10.854;2023-07-31T08:27:22;98045.69;;;17.49;100.00
65897;BME280;52677;50.898;10.854;2023-07-31T08:29:22;98049.84;;;17.41;100.00
65897;BME280;52677;50.898;10.854;2023-07-31T08:31:24;98040.06;;;17.33;100.00
65897;BME280;52677;50.898;10.854;2023-07-31T08:33:24;98045.66;;;17.33;100.00
65897;BME280;52677;50.898;10.854;2023-07-31T08:35:25;98033.22;;;17.34;100.00
65897;BME280;52677;50.898;10.854;2023-07-31T08:37:26;98040.41;;;17.35;100.00
65897;BME280;52677;50.898;10.854;2023-07-31T08:39:26;98044.72;;;17.39;100.00
65897;BME280;52677;50.898;10.854;2023-07-31T08:41:27;98026.69;;;17.40;100.00
65897;BME280;52677;50.898;10.854;2023-07-31T08:43:27;98038.56;;;17.45;100.00
65897;BME280;52677;50.898;10.854;2023-07-31T08:45:28;98038.06;;;17.50;100.00
65897;BME280;52677;50.898;10.854;2023-07-31T08:47:30;98034.31;;;17.56;100.00
65897;BME280;52677;50.898;10.854;2023-07-31T08:49:31;98021.31;;;17.66;100.00
65897;BME280;52677;50.898;10.854;2023-07-31T08:51:34;98015.81;;;17.79;100.00
65897;BME280;52677;50.898;10.854;2023-07-31T08:53:34;98023.69;;;17.84;100.00
65897;BME280;52677;50.898;10.854;2023-07-31T08:55:35;98021.16;;;17.89;100.00
65897;BME280;52677;50.898;10.854;2023-07-31T08:57:37;98025.34;;;17.98;100.00
65897;BME280;52677;50.898;10.854;2023-07-31T08:59:38;98025.53;;;18.07;100.00
65897;BME280;52677;50.898;10.854;2023-07-31T09:01:43;98016.84;;;18.17;100.00
65897;BME280;52677;50.898;10.854;2023-07-31T09:03:49;98016.75;;;18.21;100.00
65897;BME280;52677;50.898;10.854;2023-07-31T09:05:51;98014.44;;;18.32;100.00
65897;BME280;52677;50.898;10.854;2023-07-31T09:07:51;98000.25;;;18.39;100.00
65897;BME280;52677;50.898;10.854;2023-07-31T09:09:52;98000.75;;;18.50;100.00
65897;BME280;52677;50.898;10.854;2023-07-31T09:11:53;98005.53;;;18.66;100.00
65897;BME280;52677;50.898;10.854;2023-07-31T09:13:56;98000.84;;;18.76;100.00
65897;BME280;52677;50.898;10.854;2023-07-31T09:15:57;97993.81;;;18.84;100.00
65897;BME280;52677;50.898;10.854;2023-07-31T09:18:02;97997.75;;;18.87;100.00
65897;BME280;52677;50.898;10.854;2023-07-31T09:20:17;97986.38;;;18.77;100.00
65897;BME280;52677;50.898;10.854;2023-07-31T09:22:31;97990.41;;;18.76;100.00
65897;BME280;52677;50.898;10.854;2023-07-31T09:24:33;97999.28;;;18.75;100.00
65897;BME280;52677;50.898;10.854;2023-07-31T09:26:36;98002.19;;;18.71;100.00
65897;BME280;52677;50.898;10.854;2023-07-31T09:28:37;98002.56;;;18.57;100.00
65897;BME280;52677;50.898;10.854;2023-07-31T09:30:47;98009.44;;;18.40;100.00
65897;BME280;52677;50.898;10.854;2023-07-31T09:32:49;98013.66;;;18.32;100.00
65897;BME280;52677;50.898;10.854;2023-07-31T09:34:50;98010.59;;;18.26;100.00
65897;BME280;52677;50.898;10.854;2023-07-31T09:36:50;98009.13;;;18.21;100.00
65897;BME280;52677;50.898;10.854;2023-07-31T09:38:52;98008.78;;;18.19;100.00
65897;BME280;52677;50.898;10.854;2023-07-31T09:40:53;98005.13;;;18.22;100.00
65897;BME280;52677;50.898;10.854;2023-07-31T09:42:56;98007.03;;;18.25;100.00
65897;BME280;52677;50.898;10.854;2023-07-31T09:45:07;98000.97;;;18.27;100.00
65897;BME280;52677;50.898;10.854;2023-07-31T09:47:24;97990.91;;;18.30;100.00
65897;BME280;52677;50.898;10.854;2023-07-31T09:49:25;98002.91;;;18.30;100.00
65897;BME280;52677;50.898;10.854;2023-07-31T09:51:28;97992.50;;;18.31;100.00
65897;BME280;52677;50.898;10.854;2023-07-31T09:53:29;98003.50;;;18.38;100.00
65897;BME280;52677;50.898;10.854;2023-07-31T09:55:31;97995.09;;;18.38;100.00
65897;BME280;52677;50.898;10.854;2023-07-31T09:57:37;98001.03;;;18.40;100.00
65897;BME280;52677;50.898;10.854;2023-07-31T09:59:39;97992.53;;;18.43;100.00
65897;BME280;52677;50.898;10.854;2023-07-31T10:01:41;97997.84;;;18.54;100.00
65897;BME280;52677;50.898;10.854;2023-07-31T10:03:43;98001.16;;;18.65;100.00
65897;BME280;52677;50.898;10.854;2023-07-31T10:05:52;98007.94;;;18.80;100.00
65897;BME280;52677;50.898;10.854;2023-07-31T10:07:54;97992.69;;;18.94;100.00
65897;BME280;52677;50.898;10.854;2023-07-31T10:09:57;97995.97;;;19.05;100.00
65897;BME280;52677;50.898;10.854;2023-07-31T10:12:00;97992.97;;;19.13;100.00
65897;BME280;52677;50.898;10.854;2023-07-31T10:14:04;97994.31;;;19.21;100.00
65897;BME280;52677;50.898;10.854;2023-07-31T10:16:05;97989.25;;;19.16;100.00
65897;BME280;52677;50.898;10.854;2023-07-31T10:18:06;97989.38;;;19.12;100.00
65897;BME280;52677;50.898;10.854;2023-07-31T10:20:07;97976.69;;;19.07;100.00
65897;BME280;52677;50.898;10.854;2023-07-31T10:22:08;97977.59;;;19.04;100.00
65897;BME280;52677;50.898;10.854;2023-07-31T10:24:08;97974.78;;;19.04;100.00
65897;BME280;52677;50.898;10.854;2023-07-31T10:26:10;97970.75;;;19.05;100.00
65897;BME280;52677;50.898;10.854;2023-07-31T10:28:12;97969.84;;;19.08;100.00
65897;BME280;52677;50.898;10.854;2023-07-31T10:30:15;97965.81;;;19.09;100.00
65897;BME280;52677;50.898;10.854;2023-07-31T10:32:17;97962.00;;;19.16;100.00